sensor_id;sensor_type;location;lat;lon;timestamp;P1;durP1;ratioP1;P2;durP2;ratioP2
6249;SDS011;3158;52.148;11.568;2023-04-25T00:01:56;2.05;;;1.77;;
6249;SDS011;3158;52.148;11.568;2023-04-25T00:06:57;2.40;;;2.20;;
6249;SDS011;3158;52.148;11.568;2023-04-25T00:12:01;2.90;;;2.08;;
6249;SDS011;3158;52.148;11.568;2023-04-25T00:17:02;3.22;;;2.92;;
6249;SDS011;3158;52.148;11.568;2023-04-25T00:22:04;4.43;;;2.40;;
6249;SDS011;3158;52.148;11.568;2023-04-25T00:27:05;4.97;;;2.42;;
6249;SDS011;3158;52.148;11.568;2023-04-25T00:32:06;2.80;;;2.35;;
6249;SDS011;3158;52.148;11.568;2023-04-25T00:37:07;4.18;;;2.10;;
6249;SDS011;3158;52.148;11.568;2023-04-25T00:42:09;4.38;;;2.50;;
6249;SDS011;3158;52.148;11.568;2023-04-25T00:47:11;2.75;;;2.13;;
6249;SDS011;3158;52.148;11.568;2023-04-25T00:52:12;2.17;;;1.98;;
6249;SDS011;3158;52.148;11.568;2023-04-25T00:57:13;5.10;;;2.65;;
6249;SDS011;3158;52.148;11.568;2023-04-25T01:02:15;2.58;;;2.38;;
6249;SDS011;3158;52.148;11.568;2023-04-25T01:07:16;2.47;;;2.35;;
6249;SDS011;3158;52.148;11.568;2023-04-25T01:12:18;4.80;;;2.55;;
6249;SDS011;3158;52.148;11.568;2023-04-25T01:17:19;2.67;;;2.47;;
6249;SDS011;3158;52.148;11.568;2023-04-25T01:22:21;2.28;;;1.90;;
6249;SDS011;3158;52.148;11.568;2023-04-25T01:27:22;5.13;;;1.90;;
6249;SDS011;3158;52.148;11.568;2023-04-25T01:32:24;2.67;;;2.22;;
6249;SDS011;3158;52.148;11.568;2023-04-25T01:37:25;3.50;;;2.33;;
6249;SDS011;3158;52.148;11.568;2023-04-25T01:42:26;2.53;;;1.85;;
6249;SDS011;3158;52.148;11.568;2023-04-25T01:47:27;1.67;;;1.38;;
6249;SDS011;3158;52.148;11.568;2023-04-25T01:52:28;3.60;;;1.95;;
6249;SDS011;3158;52.148;11.568;2023-04-25T01:57:30;5.40;;;1.90;;
6249;SDS011;3158;52.148;11.568;2023-04-25T02:02:31;1.98;;;1.60;;
6249;SDS011;3158;52.148;11.568;2023-04-25T02:07:33;3.58;;;1.83;;
6249;SDS011;3158;52.148;11.568;2023-04-25T02:12:35;6.28;;;2.25;;
6249;SDS011;3158;52.148;11.568;2023-04-25T02:17:50;1.75;;;1.65;;
6249;SDS011;3158;52.148;11.568;2023-04-25T02:22:54;2.00;;;1.90;;
6249;SDS011;3158;52.148;11.568;2023-04-25T02:27:55;5.38;;;2.00;;
6249;SDS011;3158;52.148;11.568;2023-04-25T02:32:56;5.00;;;1.92;;
6249;SDS011;3158;52.148;11.568;2023-04-25T02:37:57;3.00;;;1.98;;
6249;SDS011;3158;52.148;11.568;2023-04-25T02:42:58;3.70;;;2.08;;
6249;SDS011;3158;52.148;11.568;2023-04-25T02:48:00;2.15;;;1.55;;
6249;SDS011;3158;52.148;11.568;2023-04-25T02:53:01;4.05;;;2.53;;
6249;SDS011;3158;52.148;11.568;2023-04-25T02:58:09;1.98;;;1.88;;
6249;SDS011;3158;52.148;11.568;2023-04-25T03:03:18;2.33;;;1.70;;
6249;SDS011;3158;52.148;11.568;2023-04-25T03:08:21;2.15;;;1.90;;
6249;SDS011;3158;52.148;11.568;2023-04-25T03:13:23;4.30;;;2.15;;
6249;SDS011;3158;52.148;11.568;2023-04-25T03:18:24;2.30;;;2.15;;
6249;SDS011;3158;52.148;11.568;2023-04-25T03:23:25;2.83;;;2.00;;
6249;SDS011;3158;52.148;11.568;2023-04-25T03:28:27;9.32;;;2.30;;
6249;SDS011;3158;52.148;11.568;2023-04-25T03:33:30;2.75;;;2.13;;
6249;SDS011;3158;52.148;11.568;2023-04-25T03:38:31;5.32;;;2.95;;
6249;SDS011;3158;52.148;11.568;2023-04-25T03:43:33;2.88;;;2.67;;
6249;SDS011;3158;52.148;11.568;2023-04-25T03:48:39;4.15;;;2.03;;
6249;SDS011;3158;52.148;11.568;2023-04-25T03:53:42;4.32;;;2.80;;
6249;SDS011;3158;52.148;11.568;2023-04-25T03:58:49;3.35;;;2.45;;
6249;SDS011;3158;52.148;11.568;2023-04-25T04:03:52;6.20;;;3.05;;
6249;SDS011;3158;52.148;11.568;2023-04-25T04:08:53;4.10;;;2.65;;
6249;SDS011;3158;52.148;11.568;2023-04-25T04:13:55;8.25;;;2.53;;
6249;SDS011;3158;52.148;11.568;2023-04-25T04:18:56;6.05;;;3.28;;
6249;SDS011;3158;52.148;11.568;2023-04-25T04:23:58;4.35;;;2.60;;
6249;SDS011;3158;52.148;11.568;2023-04-25T04:29:01;6.82;;;3.13;;
6249;SDS011;3158;52.148;11.568;2023-04-25T04:34:21;4.85;;;3.13;;
6249;SDS011;3158;52.148;11.568;2023-04-25T04:39:24;4.45;;;2.72;;
6249;SDS011;3158;52.148;11.568;2023-04-25T04:44:44;5.68;;;2.92;;
6249;SDS011;3158;52.148;11.568;2023-04-25T04:50:00;5.93;;;3.33;;
6249;SDS011;3158;52.148;11.568;2023-04-25T04:55:20;5.10;;;2.78;;
6249;SDS011;3158;52.148;11.568;2023-04-25T05:00:41;3.47;;;3.17;;
6249;SDS011;3158;52.148;11.568;2023-04-25T05:06:05;8.27;;;3.97;;
6249;SDS011;3158;52.148;11.568;2023-04-25T05:11:25;7.50;;;4.57;;
6249;SDS011;3158;52.148;11.568;2023-04-25T05:16:38;7.15;;;3.72;;
6249;SDS011;3158;52.148;11.568;2023-04-25T05:22:11;8.38;;;4.15;;
6249;SDS011;3158;52.148;11.568;2023-04-25T05:27:32;5.47;;;4.30;;
6249;SDS011;3158;52.148;11.568;2023-04-25T05:32:49;8.35;;;4.50;;
6249;SDS011;3158;52.148;11.568;2023-04-25T05:37:51;5.18;;;3.13;;
6249;SDS011;3158;52.148;11.568;2023-04-25T05:42:55;2.10;;;2.00;;
6249;SDS011;3158;52.148;11.568;2023-04-25T05:48:02;2.70;;;1.77;;
6249;SDS011;3158;52.148;11.568;2023-04-25T05:53:12;5.88;;;2.10;;
6249;SDS011;3158;52.148;11.568;2023-04-25T05:58:15;2.03;;;1.85;;
6249;SDS011;3158;52.148;11.568;2023-04-25T06:03:17;5.60;;;1.40;;
6249;SDS011;3158;52.148;11.568;2023-04-25T06:08:19;7.43;;;1.35;;
6249;SDS011;3158;52.148;11.568;2023-04-25T06:13:20;1.33;;;1.20;;
6249;SDS011;3158;52.148;11.568;2023-04-25T06:23:49;7.10;;;1.67;;
6249;SDS011;3158;52.148;11.568;2023-04-25T06:28:54;4.57;;;1.50;;
6249;SDS011;3158;52.148;11.568;2023-04-25T06:33:55;9.38;;;1.58;;
6249;SDS011;3158;52.148;11.568;2023-04-25T06:38:59;11.85;;;2.08;;
6249;SDS011;3158;52.148;11.568;2023-04-25T06:44:00;7.10;;;1.58;;
6249;SDS011;3158;52.148;11.568;2023-04-25T06:49:06;4.53;;;1.25;;
6249;SDS011;3158;52.148;11.568;2023-04-25T06:54:07;5.78;;;1.38;;
6249;SDS011;3158;52.148;11.568;2023-04-25T06:59:15;8.52;;;1.92;;
6249;SDS011;3158;52.148;11.568;2023-04-25T07:04:18;7.80;;;1.73;;
6249;SDS011;3158;52.148;11.568;2023-04-25T07:09:24;7.43;;;1.50;;
6249;SDS011;3158;52.148;11.568;2023-04-25T07:14:26;5.05;;;1.45;;
6249;SDS011;3158;52.148;11.568;2023-04-25T07:19:27;9.88;;;1.73;;
6249;SDS011;3158;52.148;11.568;2023-04-25T07:24:32;7.82;;;1.20;;
6249;SDS011;3158;52.148;11.568;2023-04-25T07:29:34;6.97;;;1.20;;
6249;SDS011;3158;52.148;11.568;2023-04-25T07:34:37;8.48;;;1.02;;
6249;SDS011;3158;52.148;11.568;2023-04-25T07:39:39;5.95;;;1.20;;
6249;SDS011;3158;52.148;11.568;2023-04-25T07:44:40;5.05;;;1.17;;
6249;SDS011;3158;52.148;11.568;2023-04-25T07:49:44;2.58;;;0.80;;
6249;SDS011;3158;52.148;11.568;2023-04-25T07:54:46;9.23;;;1.75;;
6249;SDS011;3158;52.148;11.568;2023-04-25T07:59:52;2.13;;;1.30;;
6249;SDS011;3158;52.148;11.568;2023-04-25T08:04:54;6.10;;;1.15;;
6249;SDS011;3158;52.148;11.568;2023-04-25T08:09:55;6.10;;;1.23;;
6249;SDS011;3158;52.148;11.568;2023-04-25T08:15:01;7.82;;;1.25;;
6249;SDS011;3158;52.148;11.568;2023-04-25T08:20:07;9.05;;;1.40;;
6249;SDS011;3158;52.148;11.568;2023-04-25T08:25:09;6.75;;;0.98;;
6249;SDS011;3158;52.148;11.568;2023-04-25T08:30:10;4.50;;;1.10;;
6249;SDS011;3158;52.148;11.568;2023-04-25T08:35:14;4.43;;;1.40;;
6249;SDS011;3158;52.148;11.568;2023-04-25T08:40:16;2.05;;;0.73;;
6249;SDS011;3158;52.148;11.568;2023-04-25T08:45:28;12.63;;;1.10;;
6249;SDS011;3158;52.148;11.568;2023-04-25T08:50:32;4.03;;;1.08;;
6249;SDS011;3158;52.148;11.568;2023-04-25T08:55:33;7.97;;;1.10;;
6249;SDS011;3158;52.148;11.568;2023-04-25T09:00:34;1.27;;;0.88;;
6249;SDS011;3158;52.148;11.568;2023-04-25T09:05:36;2.75;;;0.80;;
6249;SDS011;3158;52.148;11.568;2023-04-25T09:10:37;4.22;;;0.98;;
6249;SDS011;3158;52.148;11.568;2023-04-25T09:15:46;4.30;;;1.08;;
6249;SDS011;3158;52.148;11.568;2023-04-25T09:21:09;3.70;;;1.02;;
6249;SDS011;3158;52.148;11.568;2023-04-25T09:26:10;1.42;;;0.80;;
6249;SDS011;3158;52.148;11.568;2023-04-25T09:31:23;2.63;;;0.80;;
6249;SDS011;3158;52.148;11.568;2023-04-25T09:36:26;2.35;;;0.77;;
6249;SDS011;3158;52.148;11.568;2023-04-25T09:41:57;2.33;;;1.00;;
6249;SDS011;3158;52.148;11.568;2023-04-25T09:46:59;3.55;;;0.80;;
6249;SDS011;3158;52.148;11.568;2023-04-25T09:52:04;4.38;;;0.60;;
6249;SDS011;3158;52.148;11.568;2023-04-25T10:02:14;5.78;;;0.70;;
6249;SDS011;3158;52.148;11.568;2023-04-25T10:07:15;7.97;;;0.90;;
6249;SDS011;3158;52.148;11.568;2023-04-25T10:12:18;8.00;;;0.88;;
6249;SDS011;3158;52.148;11.568;2023-04-25T10:17:20;3.60;;;0.85;;
6249;SDS011;3158;52.148;11.568;2023-04-25T10:22:31;6.38;;;0.80;;
6249;SDS011;3158;52.148;11.568;2023-04-25T10:27:33;5.28;;;1.10;;
6249;SDS011;3158;52.148;11.568;2023-04-25T10:32:34;6.72;;;0.98;;
6249;SDS011;3158;52.148;11.568;2023-04-25T10:37:36;1.98;;;0.70;;
6249;SDS011;3158;52.148;11.568;2023-04-25T10:42:37;5.70;;;0.70;;
6249;SDS011;3158;52.148;11.568;2023-04-25T10:47:43;5.68;;;0.93;;
6249;SDS011;3158;52.148;11.568;2023-04-25T10:52:47;4.57;;;1.08;;
6249;SDS011;3158;52.148;11.568;2023-04-25T10:57:48;6.07;;;0.95;;
6249;SDS011;3158;52.148;11.568;2023-04-25T11:02:53;8.27;;;1.00;;
6249;SDS011;3158;52.148;11.568;2023-04-25T11:07:54;2.90;;;0.90;;
6249;SDS011;3158;52.148;11.568;2023-04-25T11:12:59;1.27;;;0.65;;
6249;SDS011;3158;52.148;11.568;2023-04-25T11:18:00;3.10;;;0.60;;
6249;SDS011;3158;52.148;11.568;2023-04-25T11:23:01;1.70;;;0.45;;
6249;SDS011;3158;52.148;11.568;2023-04-25T11:28:03;1.65;;;0.70;;
6249;SDS011;3158;52.148;11.568;2023-04-25T11:33:04;3.38;;;0.65;;
6249;SDS011;3158;52.148;11.568;2023-04-25T11:38:05;3.10;;;0.95;;
6249;SDS011;3158;52.148;11.568;2023-04-25T11:43:06;5.05;;;0.60;;
6249;SDS011;3158;52.148;11.568;2023-04-25T11:48:07;1.80;;;0.60;;
6249;SDS011;3158;52.148;11.568;2023-04-25T11:53:08;2.17;;;0.60;;
6249;SDS011;3158;52.148;11.568;2023-04-25T11:58:10;0.50;;;0.50;;
6249;SDS011;3158;52.148;11.568;2023-04-25T12:03:13;4.70;;;0.80;;
6249;SDS011;3158;52.148;11.568;2023-04-25T12:08:17;2.08;;;0.68;;
6249;SDS011;3158;52.148;11.568;2023-04-25T12:13:19;2.55;;;0.60;;
6249;SDS011;3158;52.148;11.568;2023-04-25T12:18:22;2.17;;;0.80;;
6249;SDS011;3158;52.148;11.568;2023-04-25T12:23:27;0.95;;;0.60;;
6249;SDS011;3158;52.148;11.568;2023-04-25T12:28:28;2.33;;;0.80;;
6249;SDS011;3158;52.148;11.568;2023-04-25T12:33:33;0.98;;;0.50;;
6249;SDS011;3158;52.148;11.568;2023-04-25T12:38:36;0.50;;;0.50;;
6249;SDS011;3158;52.148;11.568;2023-04-25T12:43:38;3.08;;;0.70;;
6249;SDS011;3158;52.148;11.568;2023-04-25T12:48:39;2.95;;;0.60;;
6249;SDS011;3158;52.148;11.568;2023-04-25T12:53:40;0.52;;;0.40;;
6249;SDS011;3158;52.148;11.568;2023-04-25T12:58:41;2.67;;;0.43;;
6249;SDS011;3158;52.148;11.568;2023-04-25T13:03:44;3.20;;;0.80;;
6249;SDS011;3158;52.148;11.568;2023-04-25T13:08:45;2.95;;;0.60;;
6249;SDS011;3158;52.148;11.568;2023-04-25T13:13:46;0.70;;;0.50;;
6249;SDS011;3158;52.148;11.568;2023-04-25T13:18:47;4.13;;;0.50;;
6249;SDS011;3158;52.148;11.568;2023-04-25T13:23:48;5.75;;;0.60;;
6249;SDS011;3158;52.148;11.568;2023-04-25T13:28:49;0.80;;;0.50;;
6249;SDS011;3158;52.148;11.568;2023-04-25T13:33:50;0.45;;;0.45;;
6249;SDS011;3158;52.148;11.568;2023-04-25T13:38:51;0.40;;;0.40;;
6249;SDS011;3158;52.148;11.568;2023-04-25T13:43:52;2.50;;;0.40;;
6249;SDS011;3158;52.148;11.568;2023-04-25T13:48:53;1.90;;;0.60;;
6249;SDS011;3158;52.148;11.568;2023-04-25T13:53:54;1.27;;;0.63;;
6249;SDS011;3158;52.148;11.568;2023-04-25T13:58:55;2.05;;;0.45;;
6249;SDS011;3158;52.148;11.568;2023-04-25T14:03:57;0.30;;;0.30;;
6249;SDS011;3158;52.148;11.568;2023-04-25T14:08:58;1.73;;;0.43;;
6249;SDS011;3158;52.148;11.568;2023-04-25T14:14:01;0.57;;;0.30;;
6249;SDS011;3158;52.148;11.568;2023-04-25T14:19:02;0.93;;;0.40;;
6249;SDS011;3158;52.148;11.568;2023-04-25T14:24:03;0.60;;;0.60;;
6249;SDS011;3158;52.148;11.568;2023-04-25T14:29:05;1.10;;;0.30;;
6249;SDS011;3158;52.148;11.568;2023-04-25T14:34:07;0.55;;;0.30;;
6249;SDS011;3158;52.148;11.568;2023-04-25T14:39:08;0.63;;;0.50;;
6249;SDS011;3158;52.148;11.568;2023-04-25T14:44:10;1.20;;;0.28;;
6249;SDS011;3158;52.148;11.568;2023-04-25T14:49:11;0.40;;;0.40;;
6249;SDS011;3158;52.148;11.568;2023-04-25T14:54:12;3.22;;;0.50;;
6249;SDS011;3158;52.148;11.568;2023-04-25T14:59:13;0.30;;;0.30;;
6249;SDS011;3158;52.148;11.568;2023-04-25T15:04:14;1.00;;;0.30;;
6249;SDS011;3158;52.148;11.568;2023-04-25T15:09:17;4.57;;;0.63;;
6249;SDS011;3158;52.148;11.568;2023-04-25T15:14:18;0.50;;;0.38;;
6249;SDS011;3158;52.148;11.568;2023-04-25T15:19:20;0.20;;;0.20;;
6249;SDS011;3158;52.148;11.568;2023-04-25T15:24:21;1.45;;;0.30;;
6249;SDS011;3158;52.148;11.568;2023-04-25T15:29:22;0.82;;;0.20;;
6249;SDS011;3158;52.148;11.568;2023-04-25T15:34:23;1.33;;;0.20;;
6249;SDS011;3158;52.148;11.568;2023-04-25T15:39:24;0.73;;;0.30;;
6249;SDS011;3158;52.148;11.568;2023-04-25T15:44:25;1.17;;;0.10;;
6249;SDS011;3158;52.148;11.568;2023-04-25T15:49:26;0.73;;;0.10;;
6249;SDS011;3158;52.148;11.568;2023-04-25T15:54:27;1.40;;;0.20;;
6249;SDS011;3158;52.148;11.568;2023-04-25T15:59:28;0.52;;;0.52;;
6249;SDS011;3158;52.148;11.568;2023-04-25T16:04:29;0.63;;;0.57;;
6249;SDS011;3158;52.148;11.568;2023-04-25T16:09:34;1.85;;;0.40;;
6249;SDS011;3158;52.148;11.568;2023-04-25T16:14:36;2.17;;;0.50;;
6249;SDS011;3158;52.148;11.568;2023-04-25T16:19:37;1.08;;;0.30;;
6249;SDS011;3158;52.148;11.568;2023-04-25T16:24:38;2.40;;;0.75;;
6249;SDS011;3158;52.148;11.568;2023-04-25T16:29:39;1.17;;;0.35;;
6249;SDS011;3158;52.148;11.568;2023-04-25T16:34:40;2.08;;;0.50;;
6249;SDS011;3158;52.148;11.568;2023-04-25T16:39:41;1.83;;;0.47;;
6249;SDS011;3158;52.148;11.568;2023-04-25T16:44:42;0.65;;;0.30;;
6249;SDS011;3158;52.148;11.568;2023-04-25T16:49:43;3.30;;;0.20;;
6249;SDS011;3158;52.148;11.568;2023-04-25T16:54:44;1.40;;;0.32;;
6249;SDS011;3158;52.148;11.568;2023-04-25T16:59:45;2.30;;;0.65;;
6249;SDS011;3158;52.148;11.568;2023-04-25T17:04:46;5.82;;;0.35;;
6249;SDS011;3158;52.148;11.568;2023-04-25T17:09:48;0.43;;;0.30;;
6249;SDS011;3158;52.148;11.568;2023-04-25T17:14:48;1.95;;;0.40;;
6249;SDS011;3158;52.148;11.568;2023-04-25T17:19:50;0.80;;;0.35;;
6249;SDS011;3158;52.148;11.568;2023-04-25T17:24:52;1.08;;;0.47;;
6249;SDS011;3158;52.148;11.568;2023-04-25T17:29:53;0.45;;;0.40;;
6249;SDS011;3158;52.148;11.568;2023-04-25T17:34:54;0.60;;;0.45;;
6249;SDS011;3158;52.148;11.568;2023-04-25T17:39:56;6.57;;;0.30;;
6249;SDS011;3158;52.148;11.568;2023-04-25T17:44:57;2.28;;;0.60;;
6249;SDS011;3158;52.148;11.568;2023-04-25T17:49:58;2.00;;;0.40;;
6249;SDS011;3158;52.148;11.568;2023-04-25T17:54:59;0.20;;;0.20;;
6249;SDS011;3158;52.148;11.568;2023-04-25T18:00:01;0.90;;;0.30;;
6249;SDS011;3158;52.148;11.568;2023-04-25T18:05:12;0.90;;;0.43;;
6249;SDS011;3158;52.148;11.568;2023-04-25T18:10:14;3.10;;;0.38;;
6249;SDS011;3158;52.148;11.568;2023-04-25T18:15:16;0.43;;;0.30;;
6249;SDS011;3158;52.148;11.568;2023-04-25T18:20:18;1.75;;;0.28;;
6249;SDS011;3158;52.148;11.568;2023-04-25T18:25:20;0.30;;;0.30;;
6249;SDS011;3158;52.148;11.568;2023-04-25T18:30:21;6.03;;;0.40;;
6249;SDS011;3158;52.148;11.568;2023-04-25T18:35:22;3.50;;;0.30;;
6249;SDS011;3158;52.148;11.568;2023-04-25T18:40:23;3.30;;;0.40;;
6249;SDS011;3158;52.148;11.568;2023-04-25T18:45:25;0.20;;;0.20;;
6249;SDS011;3158;52.148;11.568;2023-04-25T18:50:26;1.55;;;0.57;;
6249;SDS011;3158;52.148;11.568;2023-04-25T18:55:27;2.60;;;0.57;;
6249;SDS011;3158;52.148;11.568;2023-04-25T19:00:29;2.40;;;0.60;;
6249;SDS011;3158;52.148;11.568;2023-04-25T19:05:30;1.52;;;0.63;;
6249;SDS011;3158;52.148;11.568;2023-04-25T19:10:31;2.72;;;0.50;;
6249;SDS011;3158;52.148;11.568;2023-04-25T19:15:32;3.05;;;0.30;;
6249;SDS011;3158;52.148;11.568;2023-04-25T19:20:33;1.05;;;0.40;;
6249;SDS011;3158;52.148;11.568;2023-04-25T19:25:34;2.30;;;0.30;;
6249;SDS011;3158;52.148;11.568;2023-04-25T19:30:36;0.20;;;0.20;;
6249;SDS011;3158;52.148;11.568;2023-04-25T19:35:37;0.95;;;0.30;;
6249;SDS011;3158;52.148;11.568;2023-04-25T19:40:38;0.40;;;0.40;;
6249;SDS011;3158;52.148;11.568;2023-04-25T19:45:39;0.43;;;0.30;;
6249;SDS011;3158;52.148;11.568;2023-04-25T19:50:40;0.63;;;0.40;;
6249;SDS011;3158;52.148;11.568;2023-04-25T19:55:41;0.95;;;0.40;;
6249;SDS011;3158;52.148;11.568;2023-04-25T20:00:43;1.27;;;0.50;;
6249;SDS011;3158;52.148;11.568;2023-04-25T20:05:44;0.57;;;0.57;;
6249;SDS011;3158;52.148;11.568;2023-04-25T20:10:45;1.60;;;0.50;;
6249;SDS011;3158;52.148;11.568;2023-04-25T20:15:46;0.70;;;0.60;;
6249;SDS011;3158;52.148;11.568;2023-04-25T20:20:47;2.80;;;0.63;;
6249;SDS011;3158;52.148;11.568;2023-04-25T20:25:48;0.52;;;0.40;;
6249;SDS011;3158;52.148;11.568;2023-04-25T20:30:50;3.05;;;0.70;;
6249;SDS011;3158;52.148;11.568;2023-04-25T20:35:51;0.77;;;0.30;;
6249;SDS011;3158;52.148;11.568;2023-04-25T20:40:53;0.90;;;0.50;;
6249;SDS011;3158;52.148;11.568;2023-04-25T20:45:55;2.70;;;0.80;;
6249;SDS011;3158;52.148;11.568;2023-04-25T20:50:57;0.68;;;0.47;;
6249;SDS011;3158;52.148;11.568;2023-04-25T20:55:59;1.13;;;0.50;;
6249;SDS011;3158;52.148;11.568;2023-04-25T21:01:01;1.00;;;0.40;;
6249;SDS011;3158;52.148;11.568;2023-04-25T21:06:03;1.83;;;0.68;;
6249;SDS011;3158;52.148;11.568;2023-04-25T21:11:04;0.85;;;0.65;;
6249;SDS011;3158;52.148;11.568;2023-04-25T21:16:05;0.65;;;0.40;;
6249;SDS011;3158;52.148;11.568;2023-04-25T21:21:06;1.42;;;0.30;;
6249;SDS011;3158;52.148;11.568;2023-04-25T21:26:07;1.63;;;0.52;;
6249;SDS011;3158;52.148;11.568;2023-04-25T21:31:08;1.58;;;0.40;;
6249;SDS011;3158;52.148;11.568;2023-04-25T21:36:10;2.50;;;0.60;;
6249;SDS011;3158;52.148;11.568;2023-04-25T21:41:11;1.95;;;0.47;;
6249;SDS011;3158;52.148;11.568;2023-04-25T21:46:12;3.88;;;0.40;;
6249;SDS011;3158;52.148;11.568;2023-04-25T21:51:13;1.85;;;0.47;;
6249;SDS011;3158;52.148;11.568;2023-04-25T21:56:14;0.80;;;0.57;;
6249;SDS011;3158;52.148;11.568;2023-04-25T22:01:15;4.13;;;0.93;;
6249;SDS011;3158;52.148;11.568;2023-04-25T22:06:16;0.88;;;0.70;;
6249;SDS011;3158;52.148;11.568;2023-04-25T22:11:17;0.95;;;0.70;;
6249;SDS011;3158;52.148;11.568;2023-04-25T22:16:18;0.73;;;0.70;;
6249;SDS011;3158;52.148;11.568;2023-04-25T22:21:19;5.30;;;1.17;;
6249;SDS011;3158;52.148;11.568;2023-04-25T22:26:22;0.50;;;0.50;;
6249;SDS011;3158;52.148;11.568;2023-04-25T22:31:24;0.85;;;0.70;;
6249;SDS011;3158;52.148;11.568;2023-04-25T22:36:25;6.50;;;0.85;;
6249;SDS011;3158;52.148;11.568;2023-04-25T22:41:26;2.78;;;0.60;;
6249;SDS011;3158;52.148;11.568;2023-04-25T22:46:27;3.05;;;1.00;;
6249;SDS011;3158;52.148;11.568;2023-04-25T22:51:28;2.08;;;0.68;;
6249;SDS011;3158;52.148;11.568;2023-04-25T22:56:30;0.50;;;0.50;;
6249;SDS011;3158;52.148;11.568;2023-04-25T23:01:31;0.70;;;0.70;;
6249;SDS011;3158;52.148;11.568;2023-04-25T23:06:32;7.05;;;0.93;;
6249;SDS011;3158;52.148;11.568;2023-04-25T23:11:33;3.60;;;0.93;;
6249;SDS011;3158;52.148;11.568;2023-04-25T23:16:35;3.80;;;1.15;;
6249;SDS011;3158;52.148;11.568;2023-04-25T23:21:36;0.85;;;0.75;;
6249;SDS011;3158;52.148;11.568;2023-04-25T23:26:39;5.45;;;1.20;;
6249;SDS011;3158;52.148;11.568;2023-04-25T23:31:41;3.38;;;1.20;;
6249;SDS011;3158;52.148;11.568;2023-04-25T23:36:42;1.10;;;1.08;;
6249;SDS011;3158;52.148;11.568;2023-04-25T23:41:43;2.70;;;0.98;;
6249;SDS011;3158;52.148;11.568;2023-04-25T23:46:44;1.88;;;0.60;;
6249;SDS011;3158;52.148;11.568;2023-04-25T23:51:46;0.45;;;0.43;;
6249;SDS011;3158;52.148;11.568;2023-04-25T23:56:47;3.80;;;1.25;;
